createdAt,value
2023-03-26T00:00:51.229Z,14.57
2023-03-26T00:03:25.164Z,14.50
2023-03-26T00:06:11.513Z,12.95
2023-03-26T00:08:44.510Z,14.55
2023-03-26T00:11:17.300Z,12.40
2023-03-26T00:13:48.842Z,12.93
2023-03-26T00:16:21.193Z,13.77
2023-03-26T00:18:52.640Z,13.18
2023-03-26T00:21:29.281Z,13.55
2023-03-26T00:24:05.252Z,14.05
2023-03-26T00:26:38.509Z,13.52
2023-03-26T00:29:11.196Z,13.15
2023-03-26T00:31:46.992Z,12.75
2023-03-26T00:34:19.272Z,13.80
2023-03-26T00:36:55.744Z,11.60
2023-03-26T00:39:26.997Z,12.18
2023-03-26T00:41:58.592Z,11.20
2023-03-26T00:44:29.985Z,11.52
2023-03-26T00:47:00.551Z,9.48
2023-03-26T00:49:31.673Z,11.20
2023-03-26T00:52:04.156Z,11.90
2023-03-26T00:54:35.012Z,12.20
2023-03-26T00:57:07.706Z,10.02
2023-03-26T00:59:39.560Z,12.27
2023-03-26T01:02:17.854Z,13.50
2023-03-26T01:05:03.680Z,14.45
2023-03-26T01:07:36.139Z,12.80
2023-03-26T01:10:08.428Z,11.88
2023-03-26T01:12:39.208Z,12.80
2023-03-26T01:15:11.471Z,12.35
2023-03-26T01:17:44.109Z,11.77
2023-03-26T01:20:27.673Z,12.18
2023-03-26T01:23:06.286Z,13.15
2023-03-26T01:25:44.602Z,11.50
2023-03-26T01:28:18.480Z,11.57
2023-03-26T01:31:10.935Z,10.77
2023-03-26T01:33:48.431Z,10.80
2023-03-26T01:36:37.514Z,10.45
2023-03-26T01:39:32.904Z,10.40
2023-03-26T01:42:39.612Z,11.48
2023-03-26T01:45:19.962Z,10.40
2023-03-26T01:47:51.192Z,10.75
2023-03-26T01:50:22.204Z,11.70
2023-03-26T01:52:52.894Z,11.27
2023-03-26T01:55:27.349Z,11.07
2023-03-26T01:58:08.810Z,9.98
2023-03-26T02:00:47.589Z,10.48
2023-03-26T02:03:33.387Z,11.98
2023-03-26T02:06:12.217Z,9.45
2023-03-26T02:09:08.714Z,10.02
2023-03-26T02:11:43.698Z,13.18
2023-03-26T02:14:15.515Z,10.90
2023-03-26T02:16:47.747Z,10.30
2023-03-26T02:19:25.458Z,11.95
2023-03-26T02:22:00.666Z,9.70
2023-03-26T02:24:33.809Z,10.60
2023-03-26T02:27:05.026Z,10.23
2023-03-26T02:29:40.829Z,11.13
2023-03-26T02:32:14.254Z,10.82
2023-03-26T02:34:48.362Z,10.02
2023-03-26T02:37:20.100Z,11.05
2023-03-26T02:39:55.915Z,10.93
2023-03-26T02:42:34.872Z,10.25
2023-03-26T02:45:07.735Z,9.30
2023-03-26T02:48:01.847Z,9.43
2023-03-26T02:50:55.358Z,8.93
2023-03-26T02:53:44.191Z,9.20
2023-03-26T02:56:37.891Z,10.13
2023-03-26T02:59:29.307Z,12.10
2023-03-26T03:02:20.393Z,10.52
2023-03-26T03:04:52.847Z,11.32
2023-03-26T03:07:26.323Z,9.70
2023-03-26T03:10:03.210Z,9.73
2023-03-26T03:13:00.997Z,10.48
2023-03-26T03:15:32.394Z,9.82
2023-03-26T03:18:03.635Z,10.10
2023-03-26T03:20:36.044Z,10.98
2023-03-26T03:23:06.900Z,10.60
2023-03-26T03:25:39.406Z,15.25
2023-03-26T03:28:10.861Z,14.25
2023-03-26T03:30:42.781Z,13.57
2023-03-26T03:33:26.297Z,13.52
2023-03-26T03:35:57.353Z,15.95
2023-03-26T03:38:29.332Z,14.20
2023-03-26T03:41:00.160Z,14.02
2023-03-26T03:43:33.750Z,13.25
2023-03-26T03:46:18.206Z,13.07
2023-03-26T03:48:51.425Z,12.43
2023-03-26T03:51:38.493Z,13.43
2023-03-26T03:54:24.086Z,12.82
2023-03-26T03:57:19.901Z,15.18
2023-03-26T04:00:15.821Z,13.80
2023-03-26T04:02:47.070Z,14.90
2023-03-26T04:05:19.078Z,15.57
2023-03-26T04:07:53.572Z,16.67
2023-03-26T04:10:30.347Z,15.15
2023-03-26T04:13:17.064Z,16.63
2023-03-26T04:16:08.153Z,15.25
2023-03-26T04:18:43.419Z,16.42
2023-03-26T04:21:18.103Z,15.57
2023-03-26T04:23:49.092Z,13.93
2023-03-26T04:26:50.955Z,14.63
2023-03-26T04:29:45.744Z,13.70
2023-03-26T04:32:30.904Z,12.73
2023-03-26T04:35:04.970Z,16.55
2023-03-26T04:37:43.123Z,13.50
2023-03-26T04:40:23.097Z,14.07
2023-03-26T04:43:07.528Z,13.02
2023-03-26T04:46:13.575Z,15.15
2023-03-26T04:48:57.089Z,14.48
2023-03-26T04:51:39.291Z,14.10
2023-03-26T04:54:22.590Z,12.93
2023-03-26T04:57:08.113Z,11.80
2023-03-26T04:59:59.179Z,12.18
2023-03-26T05:02:33.685Z,12.27
2023-03-26T05:05:05.241Z,13.27
2023-03-26T05:07:38.056Z,12.68
2023-03-26T05:10:15.149Z,11.90
2023-03-26T05:13:07.219Z,12.63
2023-03-26T05:15:40.378Z,11.60
2023-03-26T05:18:37.205Z,12.32
2023-03-26T05:21:12.083Z,11.13
2023-03-26T05:23:44.713Z,10.13
2023-03-26T05:26:23.018Z,10.82
2023-03-26T05:28:53.820Z,11.20
2023-03-26T05:31:34.180Z,10.25
2023-03-26T05:34:07.700Z,9.75
2023-03-26T05:36:39.305Z,10.35
2023-03-26T05:39:27.363Z,13.35
2023-03-26T05:42:16.710Z,8.82
2023-03-26T05:45:23.510Z,9.38
2023-03-26T05:47:56.834Z,8.50
2023-03-26T05:50:29.646Z,8.10
2023-03-26T05:53:03.370Z,8.23
2023-03-26T05:55:37.165Z,9.35
2023-03-26T05:58:28.233Z,7.70
2023-03-26T06:01:18.083Z,10.02
2023-03-26T06:04:07.381Z,7.82
2023-03-26T06:06:43.698Z,9.20
2023-03-26T06:09:14.762Z,13.70
2023-03-26T06:11:46.329Z,8.68
2023-03-26T06:14:17.992Z,9.40
2023-03-26T06:17:07.393Z,9.13
2023-03-26T06:19:58.317Z,7.50
2023-03-26T06:22:38.249Z,6.60
2023-03-26T06:25:22.496Z,6.13
2023-03-26T06:28:14.116Z,5.60
2023-03-26T06:31:08.072Z,5.10
2023-03-26T06:34:04.836Z,5.38
2023-03-26T06:36:35.793Z,5.18
2023-03-26T06:39:07.840Z,5.30
2023-03-26T06:41:43.083Z,5.22
2023-03-26T06:44:37.140Z,5.25
2023-03-26T06:47:27.031Z,5.82
2023-03-26T06:49:57.594Z,5.68
2023-03-26T06:52:42.239Z,5.00
2023-03-26T06:55:45.203Z,5.18
2023-03-26T06:58:29.745Z,5.57
2023-03-26T07:01:18.978Z,5.45
2023-03-26T07:04:08.381Z,5.53
2023-03-26T07:06:57.358Z,6.65
2023-03-26T07:09:46.910Z,6.30
2023-03-26T07:12:36.784Z,5.90
2023-03-26T07:15:26.310Z,5.93
2023-03-26T07:18:13.351Z,5.32
2023-03-26T07:20:48.244Z,5.40
2023-03-26T07:23:24.546Z,5.45
2023-03-26T07:26:30.624Z,5.95
2023-03-26T07:29:41.015Z,5.65
2023-03-26T07:33:10.274Z,5.45
2023-03-26T07:36:19.044Z,5.78
2023-03-26T07:39:53.597Z,5.90
2023-03-26T07:42:52.300Z,6.47
2023-03-26T07:45:47.276Z,5.10
2023-03-26T07:48:50.947Z,5.40
2023-03-26T07:51:36.650Z,5.40
2023-03-26T07:54:16.391Z,5.03
2023-03-26T07:57:06.569Z,5.45
2023-03-26T08:00:43.968Z,5.90
2023-03-26T08:03:23.018Z,5.03
2023-03-26T08:06:07.389Z,5.65
2023-03-26T08:09:06.149Z,5.40
2023-03-26T08:12:36.230Z,5.20
2023-03-26T08:15:38.776Z,6.13
2023-03-26T08:18:42.471Z,5.13
2023-03-26T08:21:22.940Z,6.63
2023-03-26T08:24:40.608Z,5.70
2023-03-26T08:27:41.925Z,6.78
2023-03-26T08:30:19.418Z,7.43
2023-03-26T08:33:02.634Z,5.53
2023-03-26T08:35:34.307Z,5.72
2023-03-26T08:38:05.079Z,6.53
2023-03-26T08:40:53.759Z,6.43
2023-03-26T08:43:57.476Z,7.47
2023-03-26T08:46:28.544Z,16.17
2023-03-26T08:49:13.858Z,7.43
2023-03-26T08:52:14.874Z,7.25
2023-03-26T08:55:08.352Z,5.65
2023-03-26T08:58:24.324Z,7.70
2023-03-26T09:01:00.681Z,7.38
2023-03-26T09:03:46.370Z,6.80
2023-03-26T09:06:52.045Z,6.53
2023-03-26T09:09:43.844Z,6.38
2023-03-26T09:12:59.119Z,6.40
2023-03-26T09:15:51.918Z,8.27
2023-03-26T09:18:25.327Z,6.90
2023-03-26T09:21:19.301Z,7.03
2023-03-26T09:23:50.793Z,6.65
2023-03-26T09:26:52.463Z,6.65
2023-03-26T09:29:34.540Z,7.10
2023-03-26T09:32:39.547Z,6.35
2023-03-26T09:35:13.658Z,6.40
2023-03-26T09:37:56.062Z,11.90
2023-03-26T09:40:55.880Z,8.63
2023-03-26T09:43:45.409Z,7.40
2023-03-26T09:46:27.220Z,14.07
2023-03-26T09:49:03.910Z,7.38
2023-03-26T09:52:09.529Z,6.65
2023-03-26T09:55:02.606Z,7.45
2023-03-26T09:57:54.762Z,7.43
2023-03-26T10:00:28.976Z,7.30
2023-03-26T10:03:11.338Z,7.57
2023-03-26T10:06:01.049Z,7.28
2023-03-26T10:08:34.972Z,7.40
2023-03-26T10:11:36.336Z,6.80
2023-03-26T10:14:41.802Z,7.57
2023-03-26T10:17:26.741Z,7.63
2023-03-26T10:20:31.078Z,8.20
2023-03-26T10:23:26.060Z,9.05
2023-03-26T10:26:22.753Z,8.13
2023-03-26T10:29:00.459Z,8.05
2023-03-26T10:31:54.096Z,9.00
2023-03-26T10:34:52.721Z,11.25
2023-03-26T10:37:35.055Z,10.25
2023-03-26T10:40:26.979Z,9.32
2023-03-26T10:43:20.759Z,9.20
2023-03-26T10:46:40.467Z,9.13
2023-03-26T10:49:35.163Z,8.93
2023-03-26T10:52:10.413Z,9.85
2023-03-26T10:55:01.053Z,8.60
2023-03-26T10:57:46.534Z,10.13
2023-03-26T11:00:28.179Z,9.73
2023-03-26T11:03:32.990Z,9.10
2023-03-26T11:06:06.554Z,11.55
2023-03-26T11:08:51.193Z,10.52
2023-03-26T11:11:30.988Z,11.43
2023-03-26T11:14:08.025Z,11.48
2023-03-26T11:16:54.778Z,10.30
2023-03-26T11:19:46.721Z,9.60
2023-03-26T11:22:41.002Z,10.98
2023-03-26T11:25:39.499Z,10.98
2023-03-26T11:28:28.608Z,10.52
2023-03-26T11:31:16.749Z,15.90
2023-03-26T11:33:54.923Z,11.95
2023-03-26T11:36:36.816Z,11.35
2023-03-26T11:39:14.592Z,11.20
2023-03-26T11:41:46.631Z,10.88
2023-03-26T11:44:55.975Z,14.82
2023-03-26T11:48:05.001Z,13.65
2023-03-26T11:50:37.604Z,12.02
2023-03-26T11:53:23.247Z,10.88
2023-03-26T11:56:18.196Z,10.60
2023-03-26T11:58:53.633Z,10.38
2023-03-26T12:01:53.810Z,11.20
2023-03-26T12:04:38.760Z,11.30
2023-03-26T12:07:18.276Z,12.70
2023-03-26T12:10:18.831Z,12.82
2023-03-26T12:12:50.284Z,11.88
2023-03-26T12:15:22.358Z,12.13
2023-03-26T12:17:57.389Z,12.32
2023-03-26T12:20:27.785Z,14.68
2023-03-26T12:23:03.696Z,13.73
2023-03-26T12:25:39.567Z,13.05
2023-03-26T12:28:16.687Z,11.88
2023-03-26T12:30:57.142Z,10.40
2023-03-26T12:33:35.924Z,11.18
2023-03-26T12:36:27.420Z,10.75
2023-03-26T12:39:42.599Z,9.80
2023-03-26T12:44:44.673Z,10.52
2023-03-26T12:44:58.826Z,9.32
2023-03-26T12:47:59.420Z,9.13
2023-03-26T12:50:35.778Z,9.43
2023-03-26T12:53:46.094Z,8.70
2023-03-26T12:56:37.234Z,10.52
2023-03-26T12:59:19.399Z,9.25
2023-03-26T13:02:16.973Z,9.23
2023-03-26T13:05:06.849Z,9.02
2023-03-26T13:07:48.290Z,9.05
2023-03-26T13:10:28.913Z,9.02
2023-03-26T13:13:30.045Z,8.88
2023-03-26T13:16:26.910Z,8.23
2023-03-26T13:19:05.317Z,7.68
2023-03-26T13:21:53.735Z,8.30
2023-03-26T13:24:41.467Z,7.78
2023-03-26T13:27:49.479Z,8.35
2023-03-26T13:30:38.259Z,7.15
2023-03-26T13:33:12.740Z,8.25
2023-03-26T13:36:10.196Z,18.73
2023-03-26T13:38:58.593Z,9.35
2023-03-26T13:41:53.685Z,10.90
2023-03-26T13:44:46.366Z,10.40
2023-03-26T13:47:21.296Z,10.00
2023-03-26T13:50:14.510Z,9.43
2023-03-26T13:53:08.245Z,8.95
2023-03-26T13:55:43.430Z,8.95
2023-03-26T13:58:35.190Z,9.32
2023-03-26T14:01:11.170Z,9.23
2023-03-26T14:04:02.925Z,9.45
2023-03-26T14:06:42.910Z,8.80
2023-03-26T14:09:23.997Z,9.05
2023-03-26T14:11:58.589Z,8.65
2023-03-26T14:14:47.290Z,8.73
2023-03-26T14:17:48.295Z,8.60
2023-03-26T14:20:57.620Z,7.85
2023-03-26T14:24:15.935Z,8.60
2023-03-26T14:27:08.177Z,9.15
2023-03-26T14:29:56.607Z,7.97
2023-03-26T14:32:44.888Z,8.00
2023-03-26T14:35:38.726Z,7.72
2023-03-26T14:38:36.684Z,6.97
2023-03-26T14:41:21.880Z,6.65
2023-03-26T14:44:18.675Z,7.50
2023-03-26T14:47:11.284Z,6.80
2023-03-26T14:49:47.962Z,6.80
2023-03-26T14:52:31.439Z,9.48
2023-03-26T14:55:04.447Z,9.20
2023-03-26T14:57:35.101Z,8.43
2023-03-26T15:00:39.853Z,8.43
2023-03-26T15:03:25.410Z,9.05
2023-03-26T15:06:05.366Z,8.85
2023-03-26T15:09:00.316Z,8.80
2023-03-26T15:11:52.293Z,9.38
2023-03-26T15:14:59.064Z,10.82
2023-03-26T15:17:53.777Z,9.25
2023-03-26T15:20:57.948Z,9.00
2023-03-26T15:24:00.219Z,9.90
2023-03-26T15:27:07.680Z,9.68
2023-03-26T15:30:11.257Z,10.55
2023-03-26T15:33:00.464Z,10.80
2023-03-26T15:36:12.573Z,11.00
2023-03-26T15:39:17.477Z,10.27
2023-03-26T15:42:26.186Z,9.60
2023-03-26T15:45:08.801Z,17.33
2023-03-26T15:47:53.261Z,31.58
2023-03-26T15:50:50.543Z,17.50
2023-03-26T15:53:55.448Z,11.48
2023-03-26T15:57:03.223Z,10.88
2023-03-26T15:59:55.885Z,8.50
2023-03-26T16:02:34.521Z,8.10
2023-03-26T16:05:26.570Z,7.85
2023-03-26T16:08:29.706Z,7.82
2023-03-26T16:11:13.416Z,8.25
2023-03-26T16:14:05.173Z,7.65
2023-03-26T16:16:59.551Z,8.35
2023-03-26T16:19:37.702Z,8.23
2023-03-26T16:22:42.797Z,8.85
2023-03-26T16:25:30.501Z,8.70
2023-03-26T16:28:12.571Z,8.20
2023-03-26T16:30:46.958Z,8.52
2023-03-26T16:33:22.109Z,8.70
2023-03-26T16:36:19.383Z,7.93
2023-03-26T16:38:53.731Z,7.75
2023-03-26T16:41:50.992Z,8.35
2023-03-26T16:44:33.305Z,8.20
2023-03-26T16:47:20.895Z,8.35
2023-03-26T16:50:42.753Z,8.10
2023-03-26T16:53:32.908Z,9.02
2023-03-26T16:56:27.220Z,9.57
2023-03-26T16:59:03.365Z,9.13
2023-03-26T17:01:44.563Z,8.30
2023-03-26T17:04:26.792Z,8.80
2023-03-26T17:07:18.264Z,8.52
2023-03-26T17:10:17.463Z,8.75
2023-03-26T17:13:11.506Z,9.43
2023-03-26T17:15:50.427Z,10.80
2023-03-26T17:18:47.470Z,10.40
2023-03-26T17:21:21.932Z,10.27
2023-03-26T17:24:01.011Z,9.80
2023-03-26T17:26:45.146Z,10.73
2023-03-26T17:29:37.741Z,11.00
2023-03-26T17:32:13.192Z,9.27
2023-03-26T17:34:57.636Z,9.52
2023-03-26T17:37:42.139Z,9.63
2023-03-26T17:40:45.691Z,9.25
2023-03-26T17:43:37.650Z,9.02
2023-03-26T17:46:35.060Z,8.55
2023-03-26T17:49:15.202Z,9.68
2023-03-26T17:51:50.309Z,9.23
2023-03-26T17:54:25.975Z,9.20
2023-03-26T17:56:57.286Z,8.85
2023-03-26T17:59:28.912Z,9.38
2023-03-26T18:02:04.442Z,8.38
2023-03-26T18:04:40.968Z,8.48
2023-03-26T18:07:50.656Z,8.05
2023-03-26T18:11:02.423Z,12.32
2023-03-26T18:13:43.937Z,16.67
2023-03-26T18:16:35.305Z,19.13
2023-03-26T18:19:19.344Z,19.08
2023-03-26T18:22:01.377Z,18.17
2023-03-26T18:24:35.322Z,18.35
2023-03-26T18:27:21.330Z,15.25
2023-03-26T18:30:01.943Z,15.30
2023-03-26T18:32:42.044Z,12.88
2023-03-26T18:35:31.145Z,12.63
2023-03-26T18:38:01.417Z,14.93
2023-03-26T18:40:42.228Z,12.48
2023-03-26T18:43:34.335Z,11.45
2023-03-26T18:46:06.643Z,11.30
2023-03-26T18:48:37.904Z,10.50
2023-03-26T18:51:09.019Z,9.80
2023-03-26T18:53:42.113Z,10.32
2023-03-26T18:56:37.745Z,10.23
2023-03-26T18:59:21.682Z,10.07
2023-03-26T19:01:52.080Z,8.68
2023-03-26T19:04:22.302Z,8.85
2023-03-26T19:06:56.123Z,8.50
2023-03-26T19:09:32.018Z,7.70
2023-03-26T19:12:17.564Z,7.53
2023-03-26T19:14:59.601Z,7.72
2023-03-26T19:17:33.571Z,7.65
2023-03-26T19:20:08.378Z,7.35
2023-03-26T19:22:43.186Z,7.32
2023-03-26T19:25:22.753Z,7.25
2023-03-26T19:27:53.548Z,7.35
2023-03-26T19:30:35.622Z,7.78
2023-03-26T19:33:14.802Z,7.90
2023-03-26T19:35:49.326Z,9.20
2023-03-26T19:38:30.109Z,11.52
2023-03-26T19:41:00.221Z,13.10
2023-03-26T19:43:30.556Z,13.10
2023-03-26T19:46:03.674Z,12.18
2023-03-26T19:51:18.597Z,13.40
2023-03-26T19:51:37.020Z,13.98
2023-03-26T19:54:17.185Z,12.55
2023-03-26T19:56:50.394Z,12.27
2023-03-26T19:59:26.007Z,12.48
2023-03-26T20:01:56.454Z,11.15
2023-03-26T20:04:27.008Z,11.13
2023-03-26T20:06:58.256Z,11.50
2023-03-26T20:09:28.828Z,12.40
2023-03-26T20:12:00.048Z,12.35
2023-03-26T20:14:33.351Z,12.10
2023-03-26T20:17:04.309Z,11.73
2023-03-26T20:19:36.295Z,10.52
2023-03-26T20:22:08.089Z,10.93
2023-03-26T20:24:38.902Z,10.90
2023-03-26T20:27:09.718Z,12.00
2023-03-26T20:29:41.105Z,10.30
2023-03-26T20:32:26.930Z,11.25
2023-03-26T20:34:58.653Z,10.65
2023-03-26T20:37:29.452Z,9.98
2023-03-26T20:40:00.309Z,9.68
2023-03-26T20:42:31.900Z,8.82
2023-03-26T20:45:02.154Z,8.57
2023-03-26T20:47:32.822Z,8.05
2023-03-26T20:50:03.290Z,7.68
2023-03-26T20:52:35.074Z,7.78
2023-03-26T20:55:07.171Z,7.93
2023-03-26T20:57:37.387Z,8.73
2023-03-26T21:00:27.747Z,8.43
2023-03-26T21:02:59.518Z,8.32
2023-03-26T21:05:31.670Z,8.13
2023-03-26T21:08:02.508Z,8.05
2023-03-26T21:10:35.360Z,8.45
2023-03-26T21:13:14.644Z,8.43
2023-03-26T21:15:46.083Z,7.70
2023-03-26T21:18:17.008Z,7.70
2023-03-26T21:21:18.212Z,7.20
2023-03-26T21:24:30.563Z,7.57
2023-03-26T21:27:56.363Z,7.50
2023-03-26T21:30:33.335Z,7.90
2023-03-26T21:33:06.168Z,9.00
2023-03-26T21:35:36.933Z,8.52
2023-03-26T21:38:10.334Z,8.65
2023-03-26T21:40:44.591Z,8.45
2023-03-26T21:43:21.675Z,8.05
2023-03-26T21:45:55.587Z,9.48
2023-03-26T21:48:26.594Z,9.90
2023-03-26T21:51:03.188Z,9.40
2023-03-26T21:53:34.038Z,10.00
2023-03-26T21:56:16.262Z,9.38
2023-03-26T21:58:49.877Z,9.02
2023-03-26T22:01:26.092Z,8.32
2023-03-26T22:04:22.273Z,8.73
2023-03-26T22:07:04.504Z,11.18
2023-03-26T22:09:36.471Z,10.95
2023-03-26T22:12:07.749Z,11.85
2023-03-26T22:14:39.008Z,12.52
2023-03-26T22:17:09.665Z,15.68
2023-03-26T22:19:39.952Z,17.83
2023-03-26T22:22:11.493Z,16.67
2023-03-26T22:24:42.608Z,22.10
2023-03-26T22:27:14.181Z,20.70
2023-03-26T22:29:45.117Z,13.18
2023-03-26T22:32:15.774Z,14.65
2023-03-26T22:34:46.593Z,13.02
2023-03-26T22:37:17.214Z,11.75
2023-03-26T22:39:47.555Z,9.40
2023-03-26T22:42:17.991Z,10.43
2023-03-26T22:44:48.472Z,10.57
2023-03-26T22:47:18.681Z,10.48
2023-03-26T22:49:50.036Z,10.85
2023-03-26T22:52:20.632Z,11.75
2023-03-26T22:54:51.626Z,10.85
2023-03-26T22:57:23.000Z,14.18
2023-03-26T22:59:54.144Z,14.45
2023-03-26T23:02:24.355Z,11.98
2023-03-26T23:04:55.074Z,11.43
2023-03-26T23:07:25.473Z,9.77
2023-03-26T23:09:55.778Z,8.50
2023-03-26T23:12:26.939Z,9.70
2023-03-26T23:14:57.245Z,9.55
2023-03-26T23:17:28.095Z,8.23
2023-03-26T23:20:01.665Z,7.68
2023-03-26T23:22:32.551Z,8.35
2023-03-26T23:25:03.484Z,9.32
2023-03-26T23:27:36.953Z,8.18
2023-03-26T23:30:08.063Z,8.45
2023-03-26T23:32:38.837Z,7.43
2023-03-26T23:35:10.084Z,7.75
2023-03-26T23:37:43.103Z,6.80
2023-03-26T23:40:14.751Z,7.40
2023-03-26T23:42:48.495Z,7.25
2023-03-26T23:45:19.417Z,6.70
2023-03-26T23:47:49.684Z,7.57
2023-03-26T23:50:24.485Z,13.43
2023-03-26T23:52:55.254Z,8.90
2023-03-26T23:55:30.210Z,8.82
2023-03-26T23:58:01.207Z,9.10
